sensor_id;sensor_type;location;lat;lon;timestamp;temperature;humidity
56869;DHT22;42754;0.000;0.000;2023-03-29T00:01:37;5.90;99.90
56869;DHT22;42754;0.000;0.000;2023-03-29T00:04:06;5.90;99.90
56869;DHT22;42754;0.000;0.000;2023-03-29T00:06:32;5.90;99.90
56869;DHT22;42754;0.000;0.000;2023-03-29T00:08:58;5.90;99.90
56869;DHT22;42754;0.000;0.000;2023-03-29T00:11:24;5.90;99.90
56869;DHT22;42754;0.000;0.000;2023-03-29T00:13:50;5.90;99.90
56869;DHT22;42754;0.000;0.000;2023-03-29T00:16:16;5.90;99.90
56869;DHT22;42754;0.000;0.000;2023-03-29T00:18:42;5.90;99.90
56869;DHT22;42754;0.000;0.000;2023-03-29T00:21:07;5.80;99.90
56869;DHT22;42754;0.000;0.000;2023-03-29T00:23:33;5.90;99.90
56869;DHT22;42754;0.000;0.000;2023-03-29T00:25:59;5.90;99.90
56869;DHT22;42754;0.000;0.000;2023-03-29T00:28:24;5.90;99.90
56869;DHT22;42754;0.000;0.000;2023-03-29T00:30:50;5.90;99.90
56869;DHT22;42754;0.000;0.000;2023-03-29T00:33:16;5.90;99.90
56869;DHT22;42754;0.000;0.000;2023-03-29T00:35:45;5.90;99.90
56869;DHT22;42754;0.000;0.000;2023-03-29T00:38:13;5.90;99.90
56869;DHT22;42754;0.000;0.000;2023-03-29T00:40:42;5.90;99.90
56869;DHT22;42754;0.000;0.000;2023-03-29T00:43:09;5.90;99.90
56869;DHT22;42754;0.000;0.000;2023-03-29T00:45:34;5.90;99.90
56869;DHT22;42754;0.000;0.000;2023-03-29T00:48:01;6.00;99.90
56869;DHT22;42754;0.000;0.000;2023-03-29T00:53:04;5.90;99.90
56869;DHT22;42754;0.000;0.000;2023-03-29T00:55:31;5.90;99.90
56869;DHT22;42754;0.000;0.000;2023-03-29T00:57:58;5.80;99.90
56869;DHT22;42754;0.000;0.000;2023-03-29T01:00:36;5.80;99.90
56869;DHT22;42754;0.000;0.000;2023-03-29T01:03:04;5.80;99.90
56869;DHT22;42754;0.000;0.000;2023-03-29T01:05:32;5.80;99.90
56869;DHT22;42754;0.000;0.000;2023-03-29T01:08:03;5.80;99.90
56869;DHT22;42754;0.000;0.000;2023-03-29T01:10:44;5.80;99.90
56869;DHT22;42754;0.000;0.000;2023-03-29T01:13:13;5.80;99.90
56869;DHT22;42754;0.000;0.000;2023-03-29T01:15:40;5.80;99.90
56869;DHT22;42754;0.000;0.000;2023-03-29T01:18:08;5.80;99.90
56869;DHT22;42754;0.000;0.000;2023-03-29T01:23:27;5.80;99.90
56869;DHT22;42754;0.000;0.000;2023-03-29T01:26:03;5.80;99.90
56869;DHT22;42754;0.000;0.000;2023-03-29T01:28:38;5.80;99.90
56869;DHT22;42754;0.000;0.000;2023-03-29T01:31:09;5.90;99.90
56869;DHT22;42754;0.000;0.000;2023-03-29T01:33:37;5.80;99.90
56869;DHT22;42754;0.000;0.000;2023-03-29T01:36:17;5.80;99.90
56869;DHT22;42754;0.000;0.000;2023-03-29T01:38:49;5.80;99.90
56869;DHT22;42754;0.000;0.000;2023-03-29T01:41:16;5.80;99.90
56869;DHT22;42754;0.000;0.000;2023-03-29T01:46:17;5.80;99.90
56869;DHT22;42754;0.000;0.000;2023-03-29T01:48:54;5.80;99.90
56869;DHT22;42754;0.000;0.000;2023-03-29T01:51:25;5.90;99.90
56869;DHT22;42754;0.000;0.000;2023-03-29T01:53:55;5.80;99.90
56869;DHT22;42754;0.000;0.000;2023-03-29T01:56:23;5.90;99.90
56869;DHT22;42754;0.000;0.000;2023-03-29T01:58:50;5.90;99.90
56869;DHT22;42754;0.000;0.000;2023-03-29T02:01:18;5.90;99.90
56869;DHT22;42754;0.000;0.000;2023-03-29T02:03:46;5.90;99.90
56869;DHT22;42754;0.000;0.000;2023-03-29T02:06:15;6.00;99.90
56869;DHT22;42754;0.000;0.000;2023-03-29T02:08:42;5.90;99.90
56869;DHT22;42754;0.000;0.000;2023-03-29T02:11:09;5.90;99.90
56869;DHT22;42754;0.000;0.000;2023-03-29T02:13:35;6.00;99.90
56869;DHT22;42754;0.000;0.000;2023-03-29T02:16:19;6.00;99.90
56869;DHT22;42754;0.000;0.000;2023-03-29T02:18:45;6.00;99.90
56869;DHT22;42754;0.000;0.000;2023-03-29T02:21:22;6.00;99.90
56869;DHT22;42754;0.000;0.000;2023-03-29T02:23:49;6.00;99.90
56869;DHT22;42754;0.000;0.000;2023-03-29T02:26:15;6.00;99.90
56869;DHT22;42754;0.000;0.000;2023-03-29T02:28:41;6.00;99.90
56869;DHT22;42754;0.000;0.000;2023-03-29T02:33:48;6.00;99.90
56869;DHT22;42754;0.000;0.000;2023-03-29T02:38:41;6.10;99.90
56869;DHT22;42754;0.000;0.000;2023-03-29T02:41:08;6.10;99.90
56869;DHT22;42754;0.000;0.000;2023-03-29T02:43:34;6.20;99.90
56869;DHT22;42754;0.000;0.000;2023-03-29T02:46:01;6.10;99.90
56869;DHT22;42754;0.000;0.000;2023-03-29T02:48:27;6.20;99.90
56869;DHT22;42754;0.000;0.000;2023-03-29T02:50:55;6.10;99.90
56869;DHT22;42754;0.000;0.000;2023-03-29T02:53:23;6.20;99.90
56869;DHT22;42754;0.000;0.000;2023-03-29T02:55:51;6.20;99.90
56869;DHT22;42754;0.000;0.000;2023-03-29T02:58:17;6.20;99.90
56869;DHT22;42754;0.000;0.000;2023-03-29T03:00:43;6.20;99.90
56869;DHT22;42754;0.000;0.000;2023-03-29T03:03:10;6.20;99.90
56869;DHT22;42754;0.000;0.000;2023-03-29T03:05:39;6.20;99.90
56869;DHT22;42754;0.000;0.000;2023-03-29T03:08:05;6.30;99.90
56869;DHT22;42754;0.000;0.000;2023-03-29T03:10:32;6.20;99.90
56869;DHT22;42754;0.000;0.000;2023-03-29T03:12:58;6.20;99.90
56869;DHT22;42754;0.000;0.000;2023-03-29T03:15:23;6.20;99.90
56869;DHT22;42754;0.000;0.000;2023-03-29T03:17:50;6.30;99.90
56869;DHT22;42754;0.000;0.000;2023-03-29T03:20:16;6.20;99.90
56869;DHT22;42754;0.000;0.000;2023-03-29T03:22:43;6.20;99.90
56869;DHT22;42754;0.000;0.000;2023-03-29T03:25:10;6.20;99.90
56869;DHT22;42754;0.000;0.000;2023-03-29T03:27:36;6.20;99.90
56869;DHT22;42754;0.000;0.000;2023-03-29T03:30:05;6.20;99.90
56869;DHT22;42754;0.000;0.000;2023-03-29T03:32:31;6.20;99.90
56869;DHT22;42754;0.000;0.000;2023-03-29T03:34:58;6.10;99.90
56869;DHT22;42754;0.000;0.000;2023-03-29T03:37:24;6.10;99.90
56869;DHT22;42754;0.000;0.000;2023-03-29T03:39:49;6.10;99.90
56869;DHT22;42754;0.000;0.000;2023-03-29T03:42:17;6.10;99.90
56869;DHT22;42754;0.000;0.000;2023-03-29T03:44:42;6.20;99.90
56869;DHT22;42754;0.000;0.000;2023-03-29T03:47:09;6.10;99.90
56869;DHT22;42754;0.000;0.000;2023-03-29T03:49:35;6.10;99.90
56869;DHT22;42754;0.000;0.000;2023-03-29T03:52:01;6.10;99.90
56869;DHT22;42754;0.000;0.000;2023-03-29T03:54:26;6.10;99.90
56869;DHT22;42754;0.000;0.000;2023-03-29T03:56:52;6.10;99.90
56869;DHT22;42754;0.000;0.000;2023-03-29T03:59:18;6.20;99.90
56869;DHT22;42754;0.000;0.000;2023-03-29T04:01:44;6.20;99.90
56869;DHT22;42754;0.000;0.000;2023-03-29T04:04:10;6.10;99.90
56869;DHT22;42754;0.000;0.000;2023-03-29T04:06:35;6.20;99.90
56869;DHT22;42754;0.000;0.000;2023-03-29T04:09:01;6.10;99.90
56869;DHT22;42754;0.000;0.000;2023-03-29T04:11:28;6.20;99.90
56869;DHT22;42754;0.000;0.000;2023-03-29T04:13:53;6.10;99.90
56869;DHT22;42754;0.000;0.000;2023-03-29T04:16:19;6.10;99.90
56869;DHT22;42754;0.000;0.000;2023-03-29T04:18:45;6.20;99.90
56869;DHT22;42754;0.000;0.000;2023-03-29T04:21:11;6.10;99.90
56869;DHT22;42754;0.000;0.000;2023-03-29T04:23:36;6.20;99.90
56869;DHT22;42754;0.000;0.000;2023-03-29T04:26:02;6.10;99.90
56869;DHT22;42754;0.000;0.000;2023-03-29T04:28:28;6.20;99.90
56869;DHT22;42754;0.000;0.000;2023-03-29T04:30:53;6.10;99.90
56869;DHT22;42754;0.000;0.000;2023-03-29T04:33:21;6.10;99.90
56869;DHT22;42754;0.000;0.000;2023-03-29T04:35:47;6.20;99.90
56869;DHT22;42754;0.000;0.000;2023-03-29T04:38:12;6.20;99.90
56869;DHT22;42754;0.000;0.000;2023-03-29T04:40:38;6.20;99.90
56869;DHT22;42754;0.000;0.000;2023-03-29T04:43:03;6.20;99.90
56869;DHT22;42754;0.000;0.000;2023-03-29T04:45:29;6.20;99.90
56869;DHT22;42754;0.000;0.000;2023-03-29T04:47:56;6.20;99.90
56869;DHT22;42754;0.000;0.000;2023-03-29T04:50:23;6.20;99.90
56869;DHT22;42754;0.000;0.000;2023-03-29T04:52:49;6.20;99.90
56869;DHT22;42754;0.000;0.000;2023-03-29T04:55:15;6.20;99.90
56869;DHT22;42754;0.000;0.000;2023-03-29T04:57:41;6.20;99.90
56869;DHT22;42754;0.000;0.000;2023-03-29T05:00:09;6.20;99.90
56869;DHT22;42754;0.000;0.000;2023-03-29T05:02:44;6.20;99.90
56869;DHT22;42754;0.000;0.000;2023-03-29T05:05:11;6.30;99.90
56869;DHT22;42754;0.000;0.000;2023-03-29T05:07:36;6.30;99.90
56869;DHT22;42754;0.000;0.000;2023-03-29T05:10:02;6.30;99.90
56869;DHT22;42754;0.000;0.000;2023-03-29T05:12:28;6.30;99.90
56869;DHT22;42754;0.000;0.000;2023-03-29T05:14:55;6.30;99.90
56869;DHT22;42754;0.000;0.000;2023-03-29T05:17:21;6.30;99.90
56869;DHT22;42754;0.000;0.000;2023-03-29T05:19:47;6.30;99.90
56869;DHT22;42754;0.000;0.000;2023-03-29T05:22:12;6.30;99.90
56869;DHT22;42754;0.000;0.000;2023-03-29T05:24:38;6.30;99.90
56869;DHT22;42754;0.000;0.000;2023-03-29T05:27:04;6.30;99.90
56869;DHT22;42754;0.000;0.000;2023-03-29T05:29:30;6.30;99.90
56869;DHT22;42754;0.000;0.000;2023-03-29T05:31:57;6.30;99.90
56869;DHT22;42754;0.000;0.000;2023-03-29T05:34:24;6.30;99.90
56869;DHT22;42754;0.000;0.000;2023-03-29T05:36:50;6.30;99.90
56869;DHT22;42754;0.000;0.000;2023-03-29T05:39:16;6.40;99.90
56869;DHT22;42754;0.000;0.000;2023-03-29T05:41:41;6.40;99.90
56869;DHT22;42754;0.000;0.000;2023-03-29T05:44:07;6.40;99.90
56869;DHT22;42754;0.000;0.000;2023-03-29T05:46:33;6.40;99.90
56869;DHT22;42754;0.000;0.000;2023-03-29T05:48:59;6.40;99.90
56869;DHT22;42754;0.000;0.000;2023-03-29T05:51:26;6.50;99.90
56869;DHT22;42754;0.000;0.000;2023-03-29T05:53:51;6.50;99.90
56869;DHT22;42754;0.000;0.000;2023-03-29T05:56:17;6.50;99.90
56869;DHT22;42754;0.000;0.000;2023-03-29T05:58:43;6.50;99.90
56869;DHT22;42754;0.000;0.000;2023-03-29T06:01:11;6.50;99.90
56869;DHT22;42754;0.000;0.000;2023-03-29T06:03:38;6.50;99.90
56869;DHT22;42754;0.000;0.000;2023-03-29T06:06:03;6.50;99.90
56869;DHT22;42754;0.000;0.000;2023-03-29T06:08:29;6.60;99.90
56869;DHT22;42754;0.000;0.000;2023-03-29T06:11:05;6.50;99.90
56869;DHT22;42754;0.000;0.000;2023-03-29T06:13:33;6.60;99.90
56869;DHT22;42754;0.000;0.000;2023-03-29T06:15:59;6.60;99.90
56869;DHT22;42754;0.000;0.000;2023-03-29T06:18:25;6.60;99.90
56869;DHT22;42754;0.000;0.000;2023-03-29T06:20:51;6.70;99.90
56869;DHT22;42754;0.000;0.000;2023-03-29T06:23:17;6.70;99.90
56869;DHT22;42754;0.000;0.000;2023-03-29T06:25:44;6.70;99.90
56869;DHT22;42754;0.000;0.000;2023-03-29T06:28:10;6.70;99.90
56869;DHT22;42754;0.000;0.000;2023-03-29T06:30:36;6.70;99.90
56869;DHT22;42754;0.000;0.000;2023-03-29T06:33:02;6.70;99.90
56869;DHT22;42754;0.000;0.000;2023-03-29T06:35:28;6.70;99.90
56869;DHT22;42754;0.000;0.000;2023-03-29T06:37:53;6.80;99.90
56869;DHT22;42754;0.000;0.000;2023-03-29T06:40:21;6.80;99.90
56869;DHT22;42754;0.000;0.000;2023-03-29T06:42:47;6.90;99.90
56869;DHT22;42754;0.000;0.000;2023-03-29T06:45:12;6.90;99.90
56869;DHT22;42754;0.000;0.000;2023-03-29T06:47:38;6.90;99.90
56869;DHT22;42754;0.000;0.000;2023-03-29T06:50:05;7.00;99.90
56869;DHT22;42754;0.000;0.000;2023-03-29T06:52:31;7.00;99.90
56869;DHT22;42754;0.000;0.000;2023-03-29T06:54:56;7.10;99.90
56869;DHT22;42754;0.000;0.000;2023-03-29T06:57:22;7.20;99.90
56869;DHT22;42754;0.000;0.000;2023-03-29T06:59:48;7.20;99.90
56869;DHT22;42754;0.000;0.000;2023-03-29T07:02:13;7.30;99.90
56869;DHT22;42754;0.000;0.000;2023-03-29T07:04:39;7.40;99.90
56869;DHT22;42754;0.000;0.000;2023-03-29T07:07:06;7.40;99.90
56869;DHT22;42754;0.000;0.000;2023-03-29T07:09:36;7.40;99.90
56869;DHT22;42754;0.000;0.000;2023-03-29T07:12:04;7.50;99.90
56869;DHT22;42754;0.000;0.000;2023-03-29T07:14:30;7.50;99.90
56869;DHT22;42754;0.000;0.000;2023-03-29T07:16:56;7.50;99.90
56869;DHT22;42754;0.000;0.000;2023-03-29T07:19:22;7.60;99.90
56869;DHT22;42754;0.000;0.000;2023-03-29T07:21:50;8.00;99.90
56869;DHT22;42754;0.000;0.000;2023-03-29T07:24:15;8.00;99.90
56869;DHT22;42754;0.000;0.000;2023-03-29T07:26:42;8.10;99.90
56869;DHT22;42754;0.000;0.000;2023-03-29T07:29:07;8.20;99.90
56869;DHT22;42754;0.000;0.000;2023-03-29T07:31:34;8.20;99.90
56869;DHT22;42754;0.000;0.000;2023-03-29T07:34:00;8.10;99.90
56869;DHT22;42754;0.000;0.000;2023-03-29T07:36:27;8.10;99.90
56869;DHT22;42754;0.000;0.000;2023-03-29T07:38:53;8.10;99.90
56869;DHT22;42754;0.000;0.000;2023-03-29T07:41:20;8.10;99.90
56869;DHT22;42754;0.000;0.000;2023-03-29T07:43:46;8.20;99.90
56869;DHT22;42754;0.000;0.000;2023-03-29T07:46:12;8.20;99.90
56869;DHT22;42754;0.000;0.000;2023-03-29T07:48:38;8.20;99.90
56869;DHT22;42754;0.000;0.000;2023-03-29T07:51:04;8.20;99.90
56869;DHT22;42754;0.000;0.000;2023-03-29T07:53:30;8.30;99.90
56869;DHT22;42754;0.000;0.000;2023-03-29T07:55:56;8.30;99.90
56869;DHT22;42754;0.000;0.000;2023-03-29T07:58:22;8.40;99.90
56869;DHT22;42754;0.000;0.000;2023-03-29T08:00:47;8.40;99.90
56869;DHT22;42754;0.000;0.000;2023-03-29T08:03:13;8.40;99.90
56869;DHT22;42754;0.000;0.000;2023-03-29T08:05:39;8.50;99.90
56869;DHT22;42754;0.000;0.000;2023-03-29T08:08:04;8.50;99.90
56869;DHT22;42754;0.000;0.000;2023-03-29T08:10:31;8.60;99.90
56869;DHT22;42754;0.000;0.000;2023-03-29T08:12:58;8.70;99.90
56869;DHT22;42754;0.000;0.000;2023-03-29T08:15:24;8.70;99.90
56869;DHT22;42754;0.000;0.000;2023-03-29T08:17:50;8.70;99.90
56869;DHT22;42754;0.000;0.000;2023-03-29T08:20:16;8.80;99.90
56869;DHT22;42754;0.000;0.000;2023-03-29T08:22:42;8.80;99.90
56869;DHT22;42754;0.000;0.000;2023-03-29T08:25:07;8.90;99.90
56869;DHT22;42754;0.000;0.000;2023-03-29T08:27:33;8.90;99.90
56869;DHT22;42754;0.000;0.000;2023-03-29T08:29:59;9.00;99.90
56869;DHT22;42754;0.000;0.000;2023-03-29T08:32:25;9.00;99.90
56869;DHT22;42754;0.000;0.000;2023-03-29T08:34:50;9.00;99.90
56869;DHT22;42754;0.000;0.000;2023-03-29T08:37:16;9.00;99.90
56869;DHT22;42754;0.000;0.000;2023-03-29T08:39:41;9.00;99.90
56869;DHT22;42754;0.000;0.000;2023-03-29T08:49:34;9.10;99.90
56869;DHT22;42754;0.000;0.000;2023-03-29T08:52:02;9.20;99.90
56869;DHT22;42754;0.000;0.000;2023-03-29T08:54:32;9.10;99.90
56869;DHT22;42754;0.000;0.000;2023-03-29T08:57:05;9.10;99.90
56869;DHT22;42754;0.000;0.000;2023-03-29T08:59:32;9.20;99.90
56869;DHT22;42754;0.000;0.000;2023-03-29T09:01:59;9.20;99.90
56869;DHT22;42754;0.000;0.000;2023-03-29T09:04:26;9.30;99.90
56869;DHT22;42754;0.000;0.000;2023-03-29T09:06:52;9.50;99.90
56869;DHT22;42754;0.000;0.000;2023-03-29T09:09:19;9.90;99.90
56869;DHT22;42754;0.000;0.000;2023-03-29T09:11:51;10.10;99.90
56869;DHT22;42754;0.000;0.000;2023-03-29T09:19:47;10.40;99.90
56869;DHT22;42754;0.000;0.000;2023-03-29T09:24:52;10.80;99.90
56869;DHT22;42754;0.000;0.000;2023-03-29T09:27:26;10.70;99.90
56869;DHT22;42754;0.000;0.000;2023-03-29T09:32:32;10.80;99.90
56869;DHT22;42754;0.000;0.000;2023-03-29T09:35:09;10.70;99.90
56869;DHT22;42754;0.000;0.000;2023-03-29T09:37:38;10.70;99.90
56869;DHT22;42754;0.000;0.000;2023-03-29T09:40:13;10.80;99.90
56869;DHT22;42754;0.000;0.000;2023-03-29T09:42:40;10.90;99.90
56869;DHT22;42754;0.000;0.000;2023-03-29T09:45:07;10.80;99.90
56869;DHT22;42754;0.000;0.000;2023-03-29T09:47:34;10.70;99.90
56869;DHT22;42754;0.000;0.000;2023-03-29T09:50:01;10.80;99.90
56869;DHT22;42754;0.000;0.000;2023-03-29T09:52:29;11.10;99.90
56869;DHT22;42754;0.000;0.000;2023-03-29T09:55:02;11.30;99.90
56869;DHT22;42754;0.000;0.000;2023-03-29T09:57:28;11.30;99.90
56869;DHT22;42754;0.000;0.000;2023-03-29T09:59:54;11.60;99.90
56869;DHT22;42754;0.000;0.000;2023-03-29T10:02:20;11.60;99.90
56869;DHT22;42754;0.000;0.000;2023-03-29T10:04:51;11.70;99.90
56869;DHT22;42754;0.000;0.000;2023-03-29T10:07:17;11.70;99.90
56869;DHT22;42754;0.000;0.000;2023-03-29T10:09:43;11.90;99.90
56869;DHT22;42754;0.000;0.000;2023-03-29T10:12:10;12.00;99.90
56869;DHT22;42754;0.000;0.000;2023-03-29T10:14:39;12.10;99.90
56869;DHT22;42754;0.000;0.000;2023-03-29T10:17:17;12.20;99.90
56869;DHT22;42754;0.000;0.000;2023-03-29T10:19:51;12.40;99.90
56869;DHT22;42754;0.000;0.000;2023-03-29T10:22:28;12.40;99.90
56869;DHT22;42754;0.000;0.000;2023-03-29T10:24:56;12.50;99.90
56869;DHT22;42754;0.000;0.000;2023-03-29T10:27:24;12.70;99.90
56869;DHT22;42754;0.000;0.000;2023-03-29T10:29:51;12.90;99.90
56869;DHT22;42754;0.000;0.000;2023-03-29T10:34:49;13.00;99.90
56869;DHT22;42754;0.000;0.000;2023-03-29T10:37:16;12.80;99.90
56869;DHT22;42754;0.000;0.000;2023-03-29T10:39:44;12.60;99.90
56869;DHT22;42754;0.000;0.000;2023-03-29T10:42:12;12.70;99.90
56869;DHT22;42754;0.000;0.000;2023-03-29T10:44:38;12.50;99.90
56869;DHT22;42754;0.000;0.000;2023-03-29T10:47:14;12.40;99.90
56869;DHT22;42754;0.000;0.000;2023-03-29T10:49:45;12.60;99.90
56869;DHT22;42754;0.000;0.000;2023-03-29T10:52:12;12.40;99.90
56869;DHT22;42754;0.000;0.000;2023-03-29T10:54:38;12.30;99.90
56869;DHT22;42754;0.000;0.000;2023-03-29T10:57:04;12.30;99.90
56869;DHT22;42754;0.000;0.000;2023-03-29T10:59:36;12.40;99.90
56869;DHT22;42754;0.000;0.000;2023-03-29T11:04:50;12.50;99.90
56869;DHT22;42754;0.000;0.000;2023-03-29T11:07:26;12.40;99.90
56869;DHT22;42754;0.000;0.000;2023-03-29T11:18:00;12.20;99.90
56869;DHT22;42754;0.000;0.000;2023-03-29T11:20:33;12.20;99.90
56869;DHT22;42754;0.000;0.000;2023-03-29T11:25:32;12.20;99.90
56869;DHT22;42754;0.000;0.000;2023-03-29T11:28:04;12.20;99.90
56869;DHT22;42754;0.000;0.000;2023-03-29T11:35:44;13.00;99.90
56869;DHT22;42754;0.000;0.000;2023-03-29T11:38:33;13.20;99.90
56869;DHT22;42754;0.000;0.000;2023-03-29T11:41:20;13.30;99.90
56869;DHT22;42754;0.000;0.000;2023-03-29T11:43:51;13.30;99.90
56869;DHT22;42754;0.000;0.000;2023-03-29T11:46:20;13.30;99.90
56869;DHT22;42754;0.000;0.000;2023-03-29T11:51:21;13.40;99.90
56869;DHT22;42754;0.000;0.000;2023-03-29T11:54:05;13.30;99.90
56869;DHT22;42754;0.000;0.000;2023-03-29T11:58:59;12.90;99.90
56869;DHT22;42754;0.000;0.000;2023-03-29T12:01:33;12.90;99.90
56869;DHT22;42754;0.000;0.000;2023-03-29T12:04:10;13.00;99.90
56869;DHT22;42754;0.000;0.000;2023-03-29T12:11:37;13.00;99.90
56869;DHT22;42754;0.000;0.000;2023-03-29T12:14:14;13.20;99.90
56869;DHT22;42754;0.000;0.000;2023-03-29T12:16:43;13.10;99.90
56869;DHT22;42754;0.000;0.000;2023-03-29T12:19:15;13.00;99.90
56869;DHT22;42754;0.000;0.000;2023-03-29T12:21:41;13.00;99.90
56869;DHT22;42754;0.000;0.000;2023-03-29T12:24:10;13.20;99.90
56869;DHT22;42754;0.000;0.000;2023-03-29T12:39:34;12.90;99.90
56869;DHT22;42754;0.000;0.000;2023-03-29T12:42:05;13.10;99.90
56869;DHT22;42754;0.000;0.000;2023-03-29T12:44:31;13.00;99.90
56869;DHT22;42754;0.000;0.000;2023-03-29T12:46:58;13.00;99.90
56869;DHT22;42754;0.000;0.000;2023-03-29T12:51:49;12.90;99.90
56869;DHT22;42754;0.000;0.000;2023-03-29T12:54:19;12.80;99.90
56869;DHT22;42754;0.000;0.000;2023-03-29T13:02:02;12.70;99.90
56869;DHT22;42754;0.000;0.000;2023-03-29T13:09:48;12.50;99.90
56869;DHT22;42754;0.000;0.000;2023-03-29T13:14:41;12.50;99.90
56869;DHT22;42754;0.000;0.000;2023-03-29T13:17:09;12.30;99.90
56869;DHT22;42754;0.000;0.000;2023-03-29T13:22:21;12.40;99.90
56869;DHT22;42754;0.000;0.000;2023-03-29T13:25:08;12.40;99.90
56869;DHT22;42754;0.000;0.000;2023-03-29T13:27:40;12.40;99.90
56869;DHT22;42754;0.000;0.000;2023-03-29T13:35:19;12.50;99.90
56869;DHT22;42754;0.000;0.000;2023-03-29T13:43:09;12.90;99.90
56869;DHT22;42754;0.000;0.000;2023-03-29T13:45:35;12.90;99.90
56869;DHT22;42754;0.000;0.000;2023-03-29T13:48:18;13.10;99.90
56869;DHT22;42754;0.000;0.000;2023-03-29T13:50:59;13.10;99.90
56869;DHT22;42754;0.000;0.000;2023-03-29T13:56:14;13.50;99.90
56869;DHT22;42754;0.000;0.000;2023-03-29T13:58:48;13.60;99.90
56869;DHT22;42754;0.000;0.000;2023-03-29T14:02:17;13.50;99.90
56869;DHT22;42754;0.000;0.000;2023-03-29T14:04:13;13.60;99.90
56869;DHT22;42754;0.000;0.000;2023-03-29T14:06:40;13.70;99.90
56869;DHT22;42754;0.000;0.000;2023-03-29T14:09:07;13.70;99.90
56869;DHT22;42754;0.000;0.000;2023-03-29T14:11:33;13.80;99.90
56869;DHT22;42754;0.000;0.000;2023-03-29T14:14:00;13.90;99.90
56869;DHT22;42754;0.000;0.000;2023-03-29T14:16:30;13.70;99.90
56869;DHT22;42754;0.000;0.000;2023-03-29T14:18:57;13.60;99.90
56869;DHT22;42754;0.000;0.000;2023-03-29T14:21:23;13.60;99.90
56869;DHT22;42754;0.000;0.000;2023-03-29T14:23:52;13.60;99.90
56869;DHT22;42754;0.000;0.000;2023-03-29T14:26:20;13.50;99.90
56869;DHT22;42754;0.000;0.000;2023-03-29T14:33:51;13.40;99.90
56869;DHT22;42754;0.000;0.000;2023-03-29T14:36:17;13.50;99.90
56869;DHT22;42754;0.000;0.000;2023-03-29T14:38:54;13.60;99.90
56869;DHT22;42754;0.000;0.000;2023-03-29T14:41:22;13.60;99.90
56869;DHT22;42754;0.000;0.000;2023-03-29T14:43:48;13.60;99.90
56869;DHT22;42754;0.000;0.000;2023-03-29T14:46:14;13.60;99.90
56869;DHT22;42754;0.000;0.000;2023-03-29T14:48:42;13.50;99.90
56869;DHT22;42754;0.000;0.000;2023-03-29T14:51:07;13.50;99.90
56869;DHT22;42754;0.000;0.000;2023-03-29T14:53:33;13.50;99.90
56869;DHT22;42754;0.000;0.000;2023-03-29T14:56:01;13.60;99.90
56869;DHT22;42754;0.000;0.000;2023-03-29T14:58:28;13.60;99.90
56869;DHT22;42754;0.000;0.000;2023-03-29T15:00:56;13.60;99.90
56869;DHT22;42754;0.000;0.000;2023-03-29T15:03:21;13.70;99.90
56869;DHT22;42754;0.000;0.000;2023-03-29T15:05:55;13.80;99.90
56869;DHT22;42754;0.000;0.000;2023-03-29T15:08:26;13.70;99.90
56869;DHT22;42754;0.000;0.000;2023-03-29T15:10:53;13.80;99.90
56869;DHT22;42754;0.000;0.000;2023-03-29T15:13:20;13.80;99.90
56869;DHT22;42754;0.000;0.000;2023-03-29T15:15:45;13.90;99.90
56869;DHT22;42754;0.000;0.000;2023-03-29T15:18:14;13.90;99.90
56869;DHT22;42754;0.000;0.000;2023-03-29T15:20:40;13.90;99.90
56869;DHT22;42754;0.000;0.000;2023-03-29T15:25:36;13.80;99.90
56869;DHT22;42754;0.000;0.000;2023-03-29T15:28:02;13.90;99.90
56869;DHT22;42754;0.000;0.000;2023-03-29T15:30:38;13.90;99.90
56869;DHT22;42754;0.000;0.000;2023-03-29T15:33:07;13.90;99.90
56869;DHT22;42754;0.000;0.000;2023-03-29T15:35:33;13.90;99.90
56869;DHT22;42754;0.000;0.000;2023-03-29T15:37:59;14.00;99.90
56869;DHT22;42754;0.000;0.000;2023-03-29T15:40:24;14.00;99.90
56869;DHT22;42754;0.000;0.000;2023-03-29T15:42:52;13.90;99.90
56869;DHT22;42754;0.000;0.000;2023-03-29T15:45:18;14.00;99.90
56869;DHT22;42754;0.000;0.000;2023-03-29T15:47:47;14.10;99.90
56869;DHT22;42754;0.000;0.000;2023-03-29T15:50:13;14.20;99.90
56869;DHT22;42754;0.000;0.000;2023-03-29T15:52:40;14.20;99.90
56869;DHT22;42754;0.000;0.000;2023-03-29T15:55:06;14.30;99.90
56869;DHT22;42754;0.000;0.000;2023-03-29T15:57:32;14.20;99.90
56869;DHT22;42754;0.000;0.000;2023-03-29T15:59:59;14.20;99.90
56869;DHT22;42754;0.000;0.000;2023-03-29T16:02:25;14.30;99.90
56869;DHT22;42754;0.000;0.000;2023-03-29T16:04:50;14.30;99.90
56869;DHT22;42754;0.000;0.000;2023-03-29T16:07:16;14.20;99.90
56869;DHT22;42754;0.000;0.000;2023-03-29T16:09:43;14.20;99.90
56869;DHT22;42754;0.000;0.000;2023-03-29T16:12:10;14.20;99.90
56869;DHT22;42754;0.000;0.000;2023-03-29T16:14:35;14.10;99.90
56869;DHT22;42754;0.000;0.000;2023-03-29T16:17:01;14.10;99.90
56869;DHT22;42754;0.000;0.000;2023-03-29T16:19:28;14.00;99.90
56869;DHT22;42754;0.000;0.000;2023-03-29T16:21:53;14.00;99.90
56869;DHT22;42754;0.000;0.000;2023-03-29T16:24:20;14.00;99.90
56869;DHT22;42754;0.000;0.000;2023-03-29T16:26:46;14.00;99.90
56869;DHT22;42754;0.000;0.000;2023-03-29T16:29:13;14.00;99.90
56869;DHT22;42754;0.000;0.000;2023-03-29T16:31:41;14.00;99.90
56869;DHT22;42754;0.000;0.000;2023-03-29T16:34:08;14.00;99.90
56869;DHT22;42754;0.000;0.000;2023-03-29T16:36:34;14.00;99.90
56869;DHT22;42754;0.000;0.000;2023-03-29T16:39:00;14.00;99.90
56869;DHT22;42754;0.000;0.000;2023-03-29T16:41:26;14.00;99.90
56869;DHT22;42754;0.000;0.000;2023-03-29T16:43:53;13.90;99.90
56869;DHT22;42754;0.000;0.000;2023-03-29T16:46:18;13.90;99.90
56869;DHT22;42754;0.000;0.000;2023-03-29T16:48:44;13.90;99.90
56869;DHT22;42754;0.000;0.000;2023-03-29T16:51:09;13.90;99.90
56869;DHT22;42754;0.000;0.000;2023-03-29T16:53:35;13.90;99.90
56869;DHT22;42754;0.000;0.000;2023-03-29T16:56:01;13.80;99.90
56869;DHT22;42754;0.000;0.000;2023-03-29T16:58:27;13.80;99.90
56869;DHT22;42754;0.000;0.000;2023-03-29T17:00:52;13.70;99.90
56869;DHT22;42754;0.000;0.000;2023-03-29T17:03:19;13.70;99.90
56869;DHT22;42754;0.000;0.000;2023-03-29T17:05:48;13.70;99.90
56869;DHT22;42754;0.000;0.000;2023-03-29T17:08:15;13.70;99.90
56869;DHT22;42754;0.000;0.000;2023-03-29T17:10:40;13.60;99.90
56869;DHT22;42754;0.000;0.000;2023-03-29T17:13:06;13.60;99.90
56869;DHT22;42754;0.000;0.000;2023-03-29T17:15:32;13.60;99.90
56869;DHT22;42754;0.000;0.000;2023-03-29T17:17:58;13.60;99.90
56869;DHT22;42754;0.000;0.000;2023-03-29T17:20:23;13.60;99.90
56869;DHT22;42754;0.000;0.000;2023-03-29T17:22:49;13.60;99.90
56869;DHT22;42754;0.000;0.000;2023-03-29T17:25:16;13.50;99.90
56869;DHT22;42754;0.000;0.000;2023-03-29T17:27:42;13.50;99.90
56869;DHT22;42754;0.000;0.000;2023-03-29T17:30:09;13.50;99.90
56869;DHT22;42754;0.000;0.000;2023-03-29T17:32:35;13.40;99.90
56869;DHT22;42754;0.000;0.000;2023-03-29T17:35:01;13.30;99.90
56869;DHT22;42754;0.000;0.000;2023-03-29T17:37:27;13.30;99.90
56869;DHT22;42754;0.000;0.000;2023-03-29T17:39:53;13.30;99.90
56869;DHT22;42754;0.000;0.000;2023-03-29T17:42:19;13.30;99.90
56869;DHT22;42754;0.000;0.000;2023-03-29T17:44:44;13.30;99.90
56869;DHT22;42754;0.000;0.000;2023-03-29T17:47:10;13.30;99.90
56869;DHT22;42754;0.000;0.000;2023-03-29T17:49:35;13.30;99.90
56869;DHT22;42754;0.000;0.000;2023-03-29T17:52:01;13.30;99.90